createdAt,value
2023-02-09T00:01:14.179Z,15.82
2023-02-09T00:03:42.915Z,16.35
2023-02-09T00:06:13.561Z,15.57
2023-02-09T00:08:41.376Z,15.35
2023-02-09T00:11:20.910Z,15.32
2023-02-09T00:13:48.120Z,14.32
2023-02-09T00:16:15.561Z,15.18
2023-02-09T00:18:42.788Z,14.80
2023-02-09T00:21:11.939Z,14.68
2023-02-09T00:23:41.111Z,15.90
2023-02-09T00:26:12.133Z,14.57
2023-02-09T00:28:42.717Z,15.20
2023-02-09T00:31:12.517Z,14.90
2023-02-09T00:33:42.422Z,15.32
2023-02-09T00:36:13.666Z,15.27
2023-02-09T00:38:42.255Z,15.95
2023-02-09T00:41:10.673Z,15.27
2023-02-09T00:43:38.588Z,14.88
2023-02-09T00:46:06.220Z,15.25
2023-02-09T00:48:34.124Z,15.85
2023-02-09T00:51:01.849Z,14.77
2023-02-09T00:53:29.252Z,15.40
2023-02-09T00:55:56.951Z,14.13
2023-02-09T00:58:24.168Z,14.90
2023-02-09T01:00:51.463Z,15.85
2023-02-09T01:03:18.712Z,14.65
2023-02-09T01:05:46.749Z,15.18
2023-02-09T01:08:14.360Z,14.65
2023-02-09T01:10:41.919Z,15.32
2023-02-09T01:13:09.193Z,16.20
2023-02-09T01:15:40.166Z,17.30
2023-02-09T01:18:07.888Z,16.42
2023-02-09T01:20:35.773Z,15.95
2023-02-09T01:23:03.289Z,15.68
2023-02-09T01:25:31.062Z,15.10
2023-02-09T01:27:58.372Z,14.68
2023-02-09T01:30:25.958Z,15.15
2023-02-09T01:32:55.214Z,14.82
2023-02-09T01:35:22.371Z,15.02
2023-02-09T01:37:49.682Z,15.60
2023-02-09T01:40:17.071Z,13.13
2023-02-09T01:42:44.293Z,14.35
2023-02-09T01:45:28.625Z,14.10
2023-02-09T01:48:01.816Z,13.82
2023-02-09T01:52:58.520Z,13.38
2023-02-09T01:55:31.049Z,13.13
2023-02-09T01:58:06.366Z,12.95
2023-02-09T02:00:33.654Z,13.02
2023-02-09T02:03:06.090Z,13.18
2023-02-09T02:05:39.598Z,11.60
2023-02-09T02:08:19.362Z,11.85
2023-02-09T02:10:47.118Z,12.68
2023-02-09T02:13:14.828Z,11.82
2023-02-09T02:16:15.482Z,12.32
2023-02-09T02:19:18.752Z,12.20
2023-02-09T02:22:16.255Z,11.85
2023-02-09T02:25:03.554Z,11.88
2023-02-09T02:27:45.533Z,12.15
2023-02-09T02:30:29.178Z,13.07
2023-02-09T02:33:25.939Z,12.82
2023-02-09T02:35:53.141Z,11.40
2023-02-09T02:39:03.997Z,13.50
2023-02-09T02:41:58.138Z,12.95
2023-02-09T02:44:29.655Z,12.90
2023-02-09T02:47:01.475Z,14.07
2023-02-09T02:49:37.549Z,13.13
2023-02-09T02:52:08.465Z,13.00
2023-02-09T02:54:42.006Z,14.30
2023-02-09T02:57:31.512Z,13.30
2023-02-09T03:00:14.631Z,12.23
2023-02-09T03:02:52.991Z,12.70
2023-02-09T03:05:23.490Z,11.98
2023-02-09T03:07:51.288Z,13.60
2023-02-09T03:10:35.092Z,13.82
2023-02-09T03:13:05.236Z,13.10
2023-02-09T03:15:51.469Z,11.80
2023-02-09T03:18:21.585Z,12.48
2023-02-09T03:20:56.783Z,12.10
2023-02-09T03:23:47.953Z,11.20
2023-02-09T03:26:21.077Z,12.95
2023-02-09T03:28:52.683Z,12.52
2023-02-09T03:31:21.860Z,12.68
2023-02-09T03:33:50.695Z,12.52
2023-02-09T03:36:19.842Z,13.35
2023-02-09T03:38:47.162Z,12.32
2023-02-09T03:41:14.442Z,11.93
2023-02-09T03:44:00.153Z,12.57
2023-02-09T03:46:27.345Z,12.60
2023-02-09T03:48:54.645Z,12.43
2023-02-09T03:51:21.899Z,11.88
2023-02-09T03:53:49.353Z,12.07
2023-02-09T03:56:16.746Z,11.30
2023-02-09T03:58:43.962Z,11.65
2023-02-09T04:01:11.945Z,11.70
2023-02-09T04:03:40.020Z,11.88
2023-02-09T04:06:07.795Z,12.07
2023-02-09T04:08:35.162Z,11.32
2023-02-09T04:11:02.376Z,11.95
2023-02-09T04:13:29.621Z,12.43
2023-02-09T04:15:57.005Z,13.52
2023-02-09T04:18:24.237Z,13.25
2023-02-09T04:20:51.553Z,12.77
2023-02-09T04:23:20.934Z,12.52
2023-02-09T04:25:48.353Z,12.98
2023-02-09T04:28:18.157Z,12.20
2023-02-09T04:30:45.946Z,12.90
2023-02-09T04:33:13.376Z,12.18
2023-02-09T04:35:40.660Z,12.95
2023-02-09T04:38:07.912Z,12.23
2023-02-09T04:40:35.136Z,11.52
2023-02-09T04:43:02.399Z,12.98
2023-02-09T04:45:29.682Z,12.15
2023-02-09T04:47:56.900Z,11.38
2023-02-09T04:50:24.154Z,12.73
2023-02-09T04:52:51.708Z,12.48
2023-02-09T04:55:18.952Z,13.35
2023-02-09T04:58:04.778Z,13.18
2023-02-09T05:00:32.195Z,12.45
2023-02-09T05:02:59.524Z,13.63
2023-02-09T05:05:26.841Z,12.82
2023-02-09T05:07:54.129Z,13.65
2023-02-09T05:10:21.446Z,13.07
2023-02-09T05:12:48.652Z,11.93
2023-02-09T05:15:16.012Z,12.23
2023-02-09T05:17:43.281Z,12.25
2023-02-09T05:20:11.088Z,14.75
2023-02-09T05:22:38.427Z,13.57
2023-02-09T05:25:06.063Z,13.70
2023-02-09T05:27:33.400Z,13.95
2023-02-09T05:30:00.694Z,12.80
2023-02-09T05:32:28.117Z,12.63
2023-02-09T05:34:55.369Z,13.35
2023-02-09T05:37:22.553Z,14.40
2023-02-09T05:39:51.252Z,13.55
2023-02-09T05:42:18.656Z,13.52
2023-02-09T05:44:48.539Z,14.07
2023-02-09T05:47:18.552Z,12.43
2023-02-09T05:49:45.932Z,12.30
2023-02-09T05:52:14.068Z,14.95
2023-02-09T05:54:41.289Z,13.57
2023-02-09T05:57:08.864Z,12.70
2023-02-09T05:59:36.108Z,13.13
2023-02-09T06:02:03.548Z,12.20
2023-02-09T06:04:31.221Z,13.57
2023-02-09T06:06:58.811Z,12.98
2023-02-09T06:09:26.175Z,13.30
2023-02-09T06:11:53.371Z,13.45
2023-02-09T06:14:21.015Z,13.45
2023-02-09T06:16:48.558Z,13.85
2023-02-09T06:19:18.416Z,12.90
2023-02-09T06:21:46.090Z,13.25
2023-02-09T06:24:14.207Z,13.05
2023-02-09T06:26:42.320Z,13.43
2023-02-09T06:29:09.734Z,13.05
2023-02-09T06:31:38.192Z,14.27
2023-02-09T06:34:05.975Z,15.20
2023-02-09T06:36:33.408Z,14.18
2023-02-09T06:39:01.451Z,14.00
2023-02-09T06:41:28.741Z,14.70
2023-02-09T06:43:55.975Z,14.48
2023-02-09T06:46:23.430Z,14.07
2023-02-09T06:48:50.956Z,13.82
2023-02-09T06:51:18.260Z,14.73
2023-02-09T06:53:45.862Z,13.93
2023-02-09T06:56:13.747Z,13.88
2023-02-09T06:58:41.835Z,13.73
2023-02-09T07:01:15.920Z,14.07
2023-02-09T07:03:44.075Z,13.43
2023-02-09T07:06:15.105Z,13.27
2023-02-09T07:08:43.337Z,12.95
2023-02-09T07:11:14.265Z,11.15
2023-02-09T07:13:41.536Z,11.95
2023-02-09T07:16:11.236Z,12.20
2023-02-09T07:18:39.439Z,12.32
2023-02-09T07:21:15.687Z,11.35
2023-02-09T07:23:42.973Z,11.73
2023-02-09T07:26:13.892Z,12.10
2023-02-09T07:28:41.325Z,11.48
2023-02-09T07:31:11.265Z,12.80
2023-02-09T07:33:38.730Z,13.02
2023-02-09T07:36:11.437Z,12.95
2023-02-09T07:38:40.200Z,11.48
2023-02-09T07:41:12.780Z,11.40
2023-02-09T07:43:40.032Z,12.45
2023-02-09T07:46:07.997Z,11.90
2023-02-09T07:48:36.243Z,11.80
2023-02-09T07:51:03.940Z,12.02
2023-02-09T07:53:31.833Z,12.07
2023-02-09T07:55:59.292Z,12.55
2023-02-09T07:58:26.690Z,13.93
2023-02-09T08:00:54.011Z,11.93
2023-02-09T08:03:24.365Z,10.77
2023-02-09T08:06:01.769Z,11.95
2023-02-09T08:08:29.086Z,11.77
2023-02-09T08:10:58.212Z,10.93
2023-02-09T08:13:28.705Z,9.90
2023-02-09T08:16:01.067Z,11.43
2023-02-09T08:18:36.195Z,13.85
2023-02-09T08:21:06.528Z,10.80
2023-02-09T08:23:35.343Z,11.30
2023-02-09T08:26:07.899Z,11.25
2023-02-09T08:28:43.959Z,10.63
2023-02-09T08:31:16.413Z,10.98
2023-02-09T08:36:12.695Z,13.85
2023-02-09T08:38:40.090Z,13.18
2023-02-09T08:41:10.218Z,14.25
2023-02-09T08:43:37.579Z,11.70
2023-02-09T08:46:10.753Z,12.77
2023-02-09T08:48:44.877Z,12.32
2023-02-09T08:51:13.495Z,11.63
2023-02-09T08:53:41.459Z,11.05
2023-02-09T08:56:08.947Z,17.65
2023-02-09T08:58:36.701Z,13.07
2023-02-09T09:01:05.602Z,11.13
2023-02-09T09:03:33.314Z,11.13
2023-02-09T09:06:02.752Z,10.07
2023-02-09T09:08:31.414Z,9.98
2023-02-09T09:10:58.795Z,9.68
2023-02-09T09:13:26.696Z,9.63
2023-02-09T09:15:57.612Z,9.77
2023-02-09T09:18:26.265Z,9.77
2023-02-09T09:20:56.261Z,10.27
2023-02-09T09:23:23.698Z,10.18
2023-02-09T09:25:51.103Z,9.18
2023-02-09T09:28:18.297Z,10.48
2023-02-09T09:30:45.601Z,9.48
2023-02-09T09:33:12.899Z,9.32
2023-02-09T09:35:40.230Z,9.38
2023-02-09T09:38:07.543Z,9.63
2023-02-09T09:40:37.631Z,10.18
2023-02-09T09:43:08.411Z,10.05
2023-02-09T09:45:38.855Z,10.65
2023-02-09T09:48:18.449Z,10.38
2023-02-09T09:50:46.851Z,10.32
2023-02-09T09:53:35.288Z,9.95
2023-02-09T09:56:10.140Z,10.02
2023-02-09T09:58:43.098Z,10.43
2023-02-09T10:01:13.422Z,10.55
2023-02-09T10:03:41.013Z,9.98
2023-02-09T10:06:22.376Z,11.10
2023-02-09T10:08:52.445Z,11.00
2023-02-09T10:11:32.955Z,10.55
2023-02-09T10:14:00.261Z,11.38
2023-02-09T10:16:34.913Z,10.75
2023-02-09T10:19:19.940Z,11.68
2023-02-09T10:21:48.997Z,11.18
2023-02-09T10:24:31.528Z,11.93
2023-02-09T10:27:05.022Z,12.35
2023-02-09T10:29:32.277Z,12.32
2023-02-09T10:32:08.430Z,11.70
2023-02-09T10:34:38.641Z,12.23
2023-02-09T10:37:26.844Z,12.48
2023-02-09T10:40:01.670Z,12.40
2023-02-09T10:42:32.548Z,13.85
2023-02-09T10:45:38.791Z,13.70
2023-02-09T10:48:21.486Z,13.07
2023-02-09T10:51:00.304Z,13.93
2023-02-09T10:53:32.145Z,13.15
2023-02-09T11:01:11.969Z,14.37
2023-02-09T11:04:00.778Z,15.20
2023-02-09T11:06:33.009Z,15.35
2023-02-09T11:09:06.937Z,14.82
2023-02-09T11:11:37.789Z,15.35
2023-02-09T11:14:14.474Z,13.98
2023-02-09T11:17:14.188Z,16.10
2023-02-09T11:19:56.857Z,16.33
2023-02-09T11:22:39.311Z,16.15
2023-02-09T11:25:58.986Z,17.05
2023-02-09T11:28:40.263Z,14.95
2023-02-09T11:31:41.897Z,16.77
2023-02-09T11:34:33.331Z,17.08
2023-02-09T11:37:23.143Z,17.05
2023-02-09T11:40:08.310Z,15.85
2023-02-09T11:42:46.864Z,17.08
2023-02-09T11:45:28.612Z,15.65
2023-02-09T11:48:04.697Z,15.20
2023-02-09T11:50:37.964Z,15.52
2023-02-09T11:53:30.792Z,15.60
2023-02-09T11:56:05.021Z,18.52
2023-02-09T11:58:59.042Z,18.38
2023-02-09T12:01:29.215Z,16.33
2023-02-09T12:04:05.504Z,16.60
2023-02-09T12:06:39.761Z,15.95
2023-02-09T12:09:26.552Z,15.80
2023-02-09T12:12:06.966Z,14.82
2023-02-09T12:15:12.515Z,15.27
2023-02-09T12:17:54.909Z,15.10
2023-02-09T12:20:27.846Z,16.50
2023-02-09T12:23:16.038Z,15.02
2023-02-09T12:25:55.157Z,15.60
2023-02-09T12:28:31.559Z,16.42
2023-02-09T12:31:00.420Z,16.08
2023-02-09T12:33:31.040Z,18.70
2023-02-09T12:36:10.283Z,16.48
2023-02-09T12:38:56.929Z,16.27
2023-02-09T12:41:51.084Z,15.88
2023-02-09T12:44:21.318Z,15.85
2023-02-09T12:46:53.032Z,16.95
2023-02-09T12:49:43.316Z,16.63
2023-02-09T12:52:15.880Z,16.58
2023-02-09T12:54:49.374Z,17.70
2023-02-09T12:57:16.631Z,16.65
2023-02-09T12:59:53.022Z,17.67
2023-02-09T13:02:30.338Z,17.85
2023-02-09T13:05:00.593Z,16.98
2023-02-09T13:08:06.110Z,17.48
2023-02-09T13:10:41.523Z,16.77
2023-02-09T13:13:11.417Z,17.08
2023-02-09T13:15:48.502Z,18.05
2023-02-09T13:18:23.372Z,16.75
2023-02-09T13:21:02.082Z,16.23
2023-02-09T13:23:51.454Z,16.98
2023-02-09T13:26:31.566Z,17.00
2023-02-09T13:29:21.335Z,18.77
2023-02-09T13:32:07.135Z,18.88
2023-02-09T13:34:34.318Z,16.95
2023-02-09T13:37:18.008Z,17.58
2023-02-09T13:39:45.620Z,17.17
2023-02-09T13:42:20.528Z,18.50
2023-02-09T13:44:52.030Z,17.90
2023-02-09T13:47:19.915Z,17.77
2023-02-09T13:50:01.361Z,17.45
2023-02-09T13:52:39.227Z,19.00
2023-02-09T13:55:13.137Z,18.38
2023-02-09T13:57:43.999Z,17.48
2023-02-09T14:00:19.026Z,17.90
2023-02-09T14:02:51.632Z,17.88
2023-02-09T14:05:39.516Z,18.05
2023-02-09T14:08:08.141Z,18.67
2023-02-09T14:10:35.786Z,17.85
2023-02-09T14:13:20.802Z,18.27
2023-02-09T14:16:08.270Z,19.25
2023-02-09T14:19:00.899Z,17.48
2023-02-09T14:21:38.005Z,18.55
2023-02-09T14:24:21.674Z,17.58
2023-02-09T14:27:04.821Z,17.90
2023-02-09T14:29:36.774Z,18.40
2023-02-09T14:32:32.091Z,18.27
2023-02-09T14:35:17.333Z,19.85
2023-02-09T14:37:45.670Z,18.92
2023-02-09T14:40:28.426Z,18.20
2023-02-09T14:43:00.827Z,19.42
2023-02-09T14:46:00.410Z,18.92
2023-02-09T14:48:29.966Z,18.35
2023-02-09T14:51:10.077Z,19.15
2023-02-09T14:53:37.433Z,19.02
2023-02-09T14:56:04.960Z,18.88
2023-02-09T14:58:32.816Z,18.45
2023-02-09T15:01:02.270Z,19.85
2023-02-09T15:03:29.645Z,21.00
2023-02-09T15:06:02.613Z,19.73
2023-02-09T15:08:33.296Z,19.58
2023-02-09T15:11:23.834Z,20.08
2023-02-09T15:14:06.650Z,19.02
2023-02-09T15:16:33.923Z,21.10
2023-02-09T15:19:03.967Z,19.75
2023-02-09T15:21:32.209Z,19.13
2023-02-09T15:23:59.564Z,18.42
2023-02-09T15:26:27.908Z,21.00
2023-02-09T15:28:55.271Z,20.27
2023-02-09T15:31:22.645Z,20.60
2023-02-09T15:33:49.897Z,21.55
2023-02-09T15:36:19.758Z,22.50
2023-02-09T15:38:47.661Z,21.00
2023-02-09T15:41:35.832Z,21.90
2023-02-09T15:44:32.529Z,21.20
2023-02-09T15:47:18.164Z,22.30
2023-02-09T15:49:45.481Z,21.33
2023-02-09T15:52:14.794Z,20.30
2023-02-09T15:54:43.250Z,21.98
2023-02-09T15:57:14.547Z,22.05
2023-02-09T15:59:42.717Z,21.92
2023-02-09T16:02:15.246Z,22.27
2023-02-09T16:04:42.985Z,22.13
2023-02-09T16:07:14.697Z,20.67
2023-02-09T16:09:43.636Z,22.63
2023-02-09T16:12:14.336Z,22.05
2023-02-09T16:14:41.636Z,24.48
2023-02-09T16:17:08.956Z,24.33
2023-02-09T16:19:36.273Z,23.35
2023-02-09T16:22:06.890Z,23.45
2023-02-09T16:24:42.272Z,23.05
2023-02-09T16:27:29.182Z,22.15
2023-02-09T16:29:58.065Z,22.90
2023-02-09T16:32:27.073Z,23.23
2023-02-09T16:34:57.752Z,21.25
2023-02-09T16:37:31.360Z,23.25
2023-02-09T16:39:58.679Z,23.25
2023-02-09T16:42:25.956Z,23.15
2023-02-09T16:44:53.678Z,22.40
2023-02-09T16:47:26.213Z,22.05
2023-02-09T16:50:00.681Z,21.88
2023-02-09T16:52:30.506Z,21.92
2023-02-09T16:55:01.317Z,21.42
2023-02-09T16:57:29.543Z,23.03
2023-02-09T16:59:57.076Z,21.00
2023-02-09T17:02:42.504Z,21.30
2023-02-09T17:05:29.492Z,23.67
2023-02-09T17:08:01.719Z,23.55
2023-02-09T17:10:33.278Z,22.80
2023-02-09T17:13:04.890Z,21.85
2023-02-09T17:15:39.927Z,24.95
2023-02-09T17:18:09.636Z,27.10
2023-02-09T17:20:42.081Z,26.20
2023-02-09T17:23:18.298Z,28.20
2023-02-09T17:25:46.864Z,29.02
2023-02-09T17:28:15.187Z,27.10
2023-02-09T17:30:43.421Z,29.27
2023-02-09T17:33:23.895Z,39.72
2023-02-09T17:36:23.858Z,30.65
2023-02-09T17:38:44.575Z,27.85
2023-02-09T17:43:45.122Z,29.77
2023-02-09T17:46:14.886Z,30.35
2023-02-09T17:48:42.627Z,30.27
2023-02-09T17:51:47.359Z,31.08
2023-02-09T17:54:20.739Z,28.60
2023-02-09T17:56:48.221Z,30.27
2023-02-09T17:59:19.915Z,28.45
2023-02-09T18:01:50.702Z,33.88
2023-02-09T18:04:28.928Z,28.67
2023-02-09T18:06:57.802Z,30.10
2023-02-09T18:09:25.457Z,27.60
2023-02-09T18:11:53.033Z,31.77
2023-02-09T18:14:22.318Z,34.47
2023-02-09T18:16:50.352Z,32.80
2023-02-09T18:19:18.424Z,28.45
2023-02-09T18:21:59.796Z,30.20
2023-02-09T18:24:29.885Z,30.58
2023-02-09T18:26:57.902Z,29.08
2023-02-09T18:29:29.530Z,28.30
2023-02-09T18:32:02.056Z,27.85
2023-02-09T18:34:29.725Z,27.98
2023-02-09T18:36:57.293Z,23.73
2023-02-09T18:39:24.681Z,29.20
2023-02-09T18:41:55.566Z,30.55
2023-02-09T18:44:34.184Z,29.43
2023-02-09T18:47:02.480Z,27.80
2023-02-09T18:49:30.183Z,28.85
2023-02-09T18:51:58.959Z,29.88
2023-02-09T18:54:28.565Z,28.15
2023-02-09T18:56:55.997Z,29.80
2023-02-09T18:59:26.974Z,28.80
2023-02-09T19:01:54.343Z,31.53
2023-02-09T19:04:21.663Z,30.08
2023-02-09T19:06:49.012Z,29.60
2023-02-09T19:09:16.431Z,32.17
2023-02-09T19:11:43.818Z,30.45
2023-02-09T19:14:29.677Z,27.58
2023-02-09T19:16:56.979Z,29.17
2023-02-09T19:19:24.723Z,30.48
2023-02-09T19:21:52.315Z,29.38
2023-02-09T19:24:19.795Z,31.70
2023-02-09T19:26:47.112Z,31.20
2023-02-09T19:29:14.858Z,30.27
2023-02-09T19:31:42.329Z,30.17
2023-02-09T19:34:12.762Z,29.33
2023-02-09T19:36:40.200Z,28.58
2023-02-09T19:39:11.755Z,28.90
2023-02-09T19:41:39.250Z,28.58
2023-02-09T19:44:09.720Z,28.75
2023-02-09T19:46:38.343Z,29.40
2023-02-09T19:49:07.073Z,30.10
2023-02-09T19:51:34.445Z,28.40
2023-02-09T19:54:05.178Z,30.52
2023-02-09T19:56:32.686Z,29.23
2023-02-09T19:59:00.469Z,30.48
2023-02-09T20:01:29.760Z,31.10
2023-02-09T20:04:00.171Z,32.83
2023-02-09T20:06:30.894Z,30.40
2023-02-09T20:08:59.462Z,31.35
2023-02-09T20:11:27.211Z,32.05
2023-02-09T20:13:55.155Z,32.30
2023-02-09T20:16:24.810Z,32.33
2023-02-09T20:18:53.500Z,31.80
2023-02-09T20:21:22.959Z,32.05
2023-02-09T20:23:54.116Z,32.72
2023-02-09T20:26:26.600Z,35.20
2023-02-09T20:28:55.196Z,37.38
2023-02-09T20:31:25.749Z,33.40
2023-02-09T20:33:53.814Z,33.05
2023-02-09T20:36:23.820Z,32.95
2023-02-09T20:38:51.756Z,34.63
2023-02-09T20:41:19.222Z,32.65
2023-02-09T20:44:05.470Z,33.78
2023-02-09T20:46:52.666Z,32.15
2023-02-09T20:49:19.970Z,31.77
2023-02-09T20:51:47.281Z,32.55
2023-02-09T20:54:15.063Z,32.30
2023-02-09T20:56:42.720Z,31.80
2023-02-09T20:59:11.466Z,31.85
2023-02-09T21:01:39.782Z,33.42
2023-02-09T21:04:07.670Z,33.65
2023-02-09T21:06:37.333Z,32.65
2023-02-09T21:09:06.088Z,33.05
2023-02-09T21:11:34.138Z,35.17
2023-02-09T21:14:01.615Z,35.13
2023-02-09T21:16:29.541Z,33.20
2023-02-09T21:18:57.412Z,33.25
2023-02-09T21:21:26.300Z,34.22
2023-02-09T21:23:54.170Z,35.88
2023-02-09T21:26:25.552Z,37.05
2023-02-09T21:28:57.260Z,34.63
2023-02-09T21:31:27.277Z,37.60
2023-02-09T21:33:54.763Z,37.30
2023-02-09T21:36:22.229Z,36.45
2023-02-09T21:38:49.594Z,36.97
2023-02-09T21:41:37.967Z,36.70
2023-02-09T21:44:06.469Z,36.22
2023-02-09T21:46:34.735Z,36.30
2023-02-09T21:49:02.537Z,35.08
2023-02-09T21:51:29.896Z,36.42
2023-02-09T21:53:57.071Z,35.25
2023-02-09T21:56:24.397Z,36.35
2023-02-09T21:58:51.721Z,37.08
2023-02-09T22:01:19.131Z,36.53
2023-02-09T22:03:49.790Z,38.08
2023-02-09T22:06:17.158Z,37.80
2023-02-09T22:08:44.412Z,35.45
2023-02-09T22:11:11.643Z,34.95
2023-02-09T22:13:38.948Z,36.75
2023-02-09T22:16:08.139Z,37.65
2023-02-09T22:18:36.704Z,35.63
2023-02-09T22:21:07.744Z,36.40
2023-02-09T22:23:35.118Z,34.95
2023-02-09T22:26:04.095Z,35.42
2023-02-09T22:28:31.429Z,37.13
2023-02-09T22:31:08.362Z,35.65
2023-02-09T22:33:36.034Z,36.25
2023-02-09T22:36:15.494Z,35.45
2023-02-09T22:38:44.919Z,35.33
2023-02-09T22:41:24.073Z,37.25
2023-02-09T22:44:00.046Z,35.53
2023-02-09T22:46:35.873Z,37.08
2023-02-09T22:49:06.967Z,37.95
2023-02-09T22:51:35.853Z,37.83
2023-02-09T22:54:04.852Z,35.15
2023-02-09T22:56:32.960Z,37.60
2023-02-09T22:59:01.217Z,37.42
2023-02-09T23:01:29.365Z,37.33
2023-02-09T23:03:57.767Z,35.58
2023-02-09T23:06:27.471Z,37.13
2023-02-09T23:08:57.152Z,36.90
2023-02-09T23:11:25.123Z,37.88
2023-02-09T23:14:03.820Z,38.63
2023-02-09T23:16:36.436Z,35.85
2023-02-09T23:19:07.108Z,38.92
2023-02-09T23:21:37.647Z,37.63
2023-02-09T23:24:05.409Z,39.35
2023-02-09T23:26:33.410Z,37.63
2023-02-09T23:29:02.626Z,37.45
2023-02-09T23:31:30.544Z,37.42
2023-02-09T23:33:58.312Z,39.30
2023-02-09T23:36:28.083Z,38.58
2023-02-09T23:39:00.961Z,37.00
2023-02-09T23:41:28.886Z,36.08
2023-02-09T23:43:56.903Z,35.15
2023-02-09T23:46:28.707Z,35.17
2023-02-09T23:48:57.565Z,34.90
2023-02-09T23:51:33.238Z,34.53
2023-02-09T23:54:04.100Z,30.95
2023-02-09T23:56:36.906Z,33.63
2023-02-09T23:59:07.972Z,35.28
